Time;durP1;ratioP1;P1;durP2;ratioP2;P2;SDS_P1;SDS_P2;PMS_P1;PMS_P2;Temp;Humidity;BMP_temperature;BMP_pressure;BME280_temperature;BME280_humidity;BME280_pressure;Samples;Min_cycle;Max_cycle;Signal;HPM_P1;HPM_P2
2023/10/05 00:00:27;;;;;;;;;;;15.70;99.90;;;;;;7320227;19;9306;-63
2023/10/05 00:02:44;;;;;;;;;;;15.60;99.90;;;;;;7318764;19;9469;-63
2023/10/05 00:05:16;;;;;;;;;;;15.60;99.90;;;;;;7320852;19;9234;-63
2023/10/05 00:07:47;;;;;;;;;;;15.50;99.90;;;;;;7317960;19;9313;-63
2023/10/05 00:10:17;;;;;;;;;;;15.50;99.90;;;;;;7315585;19;9234;-64
2023/10/05 00:12:47;;;;;;;;;;;15.40;99.90;;;;;;7321875;19;9725;-63
2023/10/05 00:15:18;;;;;;;;;;;15.50;99.90;;;;;;7319576;19;9523;-63
2023/10/05 00:17:48;;;;;;;;;;;15.30;99.90;;;;;;7321359;19;9483;-63
2023/10/05 00:20:24;;;;;;;;;;;15.30;99.90;;;;;;7319242;19;9237;-64
2023/10/05 00:22:57;;;;;;;;;;;15.20;99.90;;;;;;7321104;19;9315;-63
2023/10/05 00:25:27;;;;;;;;;;;15.30;99.90;;;;;;7311880;19;9368;-63
2023/10/05 00:27:57;;;;;;;;;;;15.40;99.90;;;;;;7316251;19;9213;-64
2023/10/05 00:30:27;;;;;;;;;;;15.40;99.90;;;;;;7320480;19;9603;-63
2023/10/05 00:32:59;;;;;;;;;;;15.40;99.90;;;;;;7317089;19;9212;-63
2023/10/05 00:35:33;;;;;;;;;;;15.40;99.90;;;;;;7317631;19;9262;-63
2023/10/05 00:38:12;;;;;;;;;;;15.40;99.90;;;;;;7318637;19;9439;-63
2023/10/05 00:40:42;;;;;;;;;;;15.30;99.90;;;;;;7320339;19;9270;-63
2023/10/05 00:43:23;;;;;;;;;;;15.40;99.90;;;;;;7317545;19;9438;-64
2023/10/05 00:45:52;;;;;;;;;;;15.30;99.90;;;;;;7312825;19;9233;-64
2023/10/05 00:48:29;;;;;;;;;;;15.20;99.90;;;;;;7314845;19;9242;-64
2023/10/05 00:51:04;;;;;;;;;;;15.20;99.90;;;;;;7318052;19;10322;-63
2023/10/05 00:53:36;;;;;;;;;;;15.20;99.90;;;;;;7311691;19;9403;-63
2023/10/05 00:56:12;;;;;;;;;;;15.20;99.90;;;;;;7318173;19;9475;-63
2023/10/05 00:58:44;;;;;;;;;;;15.40;99.90;;;;;;7319184;19;9289;-63
2023/10/05 01:01:22;;;;;;;;;;;15.40;99.90;;;;;;7320397;19;9210;-63
2023/10/05 01:04:18;;;;;;;;;;;15.30;99.90;;;;;;7319463;19;10172;-63
2023/10/05 01:06:54;;;;;;;;;;;15.30;99.90;;;;;;7317775;19;10708;-63
2023/10/05 01:12:21;;;;;;;;;;;15.10;99.90;;;;;;7319533;19;9550;-63
2023/10/05 01:14:53;;;;;;;;;;;15.20;99.90;;;;;;7317149;19;9479;-63
2023/10/05 01:17:25;;;;;;;;;;;15.20;99.90;;;;;;7316816;19;9472;-63
2023/10/05 01:19:57;;;;;;;;;;;15.20;99.90;;;;;;7320322;19;9260;-63
2023/10/05 01:22:32;;;;;;;;;;;15.20;99.90;;;;;;7319423;19;9468;-63
2023/10/05 01:25:05;;;;;;;;;;;15.20;99.90;;;;;;7315211;19;9309;-64
2023/10/05 01:27:34;;;;;;;;;;;15.20;99.90;;;;;;7315717;19;9262;-63
2023/10/05 01:30:06;;;;;;;;;;;15.10;99.90;;;;;;7316023;19;9693;-63
2023/10/05 01:32:35;;;;;;;;;;;15.10;99.90;;;;;;7304171;19;9414;-63
2023/10/05 01:35:08;;;;;;;;;;;15.10;99.90;;;;;;7316398;19;9599;-63
2023/10/05 01:37:37;;;;;;;;;;;15.00;99.90;;;;;;7311270;19;10343;-63
2023/10/05 01:40:13;;;;;;;;;;;14.90;99.90;;;;;;7317058;19;9276;-64
2023/10/05 01:42:46;;;;;;;;;;;14.90;99.90;;;;;;7315391;19;10340;-63
2023/10/05 01:45:21;;;;;;;;;;;14.90;99.90;;;;;;7316709;19;9297;-63
2023/10/05 01:47:50;;;;;;;;;;;14.90;99.90;;;;;;7318540;19;9133;-63
2023/10/05 01:50:22;;;;;;;;;;;15.00;99.90;;;;;;7320303;19;9465;-63
2023/10/05 01:52:56;;;;;;;;;;;15.00;99.90;;;;;;7311207;19;9336;-63
2023/10/05 01:55:30;;;;;;;;;;;15.20;99.90;;;;;;7312219;19;9570;-63
2023/10/05 01:57:59;;;;;;;;;;;15.20;99.90;;;;;;7318925;19;9242;-63
2023/10/05 02:00:31;;;;;;;;;;;15.20;99.90;;;;;;7318733;19;9475;-63
2023/10/05 02:03:01;;;;;;;;;;;15.20;99.90;;;;;;7315542;19;9348;-63
2023/10/05 02:05:30;;;;;;;;;;;15.10;99.90;;;;;;7318486;19;9475;-63
2023/10/05 02:07:59;;;;;;;;;;;15.10;99.90;;;;;;7317143;19;9335;-63
2023/10/05 02:10:32;;;;;;;;;;;15.00;99.90;;;;;;7309559;19;9483;-64
2023/10/05 02:13:02;;;;;;;;;;;15.00;99.90;;;;;;7316199;19;9487;-63
2023/10/05 02:15:31;;;;;;;;;;;14.90;99.90;;;;;;7314464;19;9265;-64
2023/10/05 02:18:12;;;;;;;;;;;14.90;99.90;;;;;;7320362;19;9210;-64
2023/10/05 02:20:44;;;;;;;;;;;14.90;99.90;;;;;;7323548;19;10330;-63
2023/10/05 02:23:29;;;;;;;;;;;14.90;99.90;;;;;;7324174;19;10370;-63
2023/10/05 02:26:08;;;;;;;;;;;15.00;99.90;;;;;;7322814;19;9187;-63
2023/10/05 02:28:39;;;;;;;;;;;15.00;99.90;;;;;;7322350;19;9338;-63
2023/10/05 02:31:12;;;;;;;;;;;14.90;99.90;;;;;;7322724;19;9225;-63
2023/10/05 02:33:43;;;;;;;;;;;15.00;99.90;;;;;;7320631;19;9356;-64
2023/10/05 02:36:17;;;;;;;;;;;14.90;99.90;;;;;;7315129;19;10423;-63
2023/10/05 02:38:53;;;;;;;;;;;15.10;99.90;;;;;;7317044;19;13150;-63
2023/10/05 02:41:37;;;;;;;;;;;15.10;99.90;;;;;;7320266;19;9285;-64
2023/10/05 02:44:16;;;;;;;;;;;15.00;99.90;;;;;;7320523;19;10395;-63
2023/10/05 02:46:47;;;;;;;;;;;15.10;99.90;;;;;;7321514;19;9699;-63
2023/10/05 02:49:22;;;;;;;;;;;15.10;99.90;;;;;;7317789;19;9514;-63
2023/10/05 02:51:52;;;;;;;;;;;15.10;99.90;;;;;;7322729;19;9257;-64
2023/10/05 02:54:22;;;;;;;;;;;15.10;99.90;;;;;;7311860;19;9289;-63
2023/10/05 02:56:54;;;;;;;;;;;15.20;99.90;;;;;;7318426;19;9226;-63
2023/10/05 02:59:29;;;;;;;;;;;15.20;99.90;;;;;;7324568;19;9171;-63
2023/10/05 03:02:06;;;;;;;;;;;15.20;99.90;;;;;;7321722;19;9608;-63
2023/10/05 03:04:47;;;;;;;;;;;15.20;99.90;;;;;;7322372;19;9254;-63
2023/10/05 03:07:17;;;;;;;;;;;15.20;99.90;;;;;;7323329;19;9400;-63
2023/10/05 03:09:46;;;;;;;;;;;15.40;99.90;;;;;;7325953;19;9257;-63
2023/10/05 03:12:20;;;;;;;;;;;15.40;99.90;;;;;;7315553;19;9453;-63
2023/10/05 03:14:50;;;;;;;;;;;15.40;99.90;;;;;;7322794;19;9241;-63
2023/10/05 03:17:21;;;;;;;;;;;15.30;99.90;;;;;;7323714;19;9277;-63
2023/10/05 03:19:51;;;;;;;;;;;15.20;99.90;;;;;;7324268;19;9502;-63
2023/10/05 03:22:23;;;;;;;;;;;15.20;99.90;;;;;;7323103;19;9435;-63
2023/10/05 03:24:53;;;;;;;;;;;15.10;99.90;;;;;;7322972;19;9165;-64
2023/10/05 03:27:25;;;;;;;;;;;15.10;99.90;;;;;;7323621;19;9366;-63
2023/10/05 03:30:01;;;;;;;;;;;15.10;99.90;;;;;;7315709;19;9355;-63
2023/10/05 03:32:31;;;;;;;;;;;15.10;99.90;;;;;;7318871;19;9280;-63
2023/10/05 03:35:01;;;;;;;;;;;15.10;99.90;;;;;;7321500;19;9296;-63
2023/10/05 03:37:31;;;;;;;;;;;15.20;99.90;;;;;;7323551;19;9466;-63
2023/10/05 03:40:07;;;;;;;;;;;15.10;99.90;;;;;;7316783;19;10352;-63
2023/10/05 03:42:39;;;;;;;;;;;15.20;99.90;;;;;;7321094;19;9242;-63
2023/10/05 03:45:11;;;;;;;;;;;15.10;99.90;;;;;;7319878;19;9324;-63
2023/10/05 03:47:40;;;;;;;;;;;15.10;99.90;;;;;;7320093;19;9315;-63
2023/10/05 03:50:16;;;;;;;;;;;15.20;99.90;;;;;;7321128;19;10796;-63
2023/10/05 03:52:45;;;;;;;;;;;15.20;99.90;;;;;;7320936;19;9579;-64
2023/10/05 03:55:18;;;;;;;;;;;15.20;99.90;;;;;;7309101;19;9262;-63
2023/10/05 03:57:50;;;;;;;;;;;15.30;99.90;;;;;;7320449;19;9247;-63
2023/10/05 04:00:23;;;;;;;;;;;15.30;99.90;;;;;;7319817;19;10308;-63
2023/10/05 04:02:53;;;;;;;;;;;15.20;99.90;;;;;;7316847;19;9291;-63
2023/10/05 04:05:22;;;;;;;;;;;15.20;99.90;;;;;;7323235;19;9036;-63
2023/10/05 04:07:52;;;;;;;;;;;15.20;99.90;;;;;;7320550;19;9245;-63
2023/10/05 04:10:23;;;;;;;;;;;15.20;99.90;;;;;;7320450;19;9261;-63
2023/10/05 04:12:55;;;;;;;;;;;15.30;99.90;;;;;;7310563;19;9296;-63
2023/10/05 04:15:25;;;;;;;;;;;15.30;99.90;;;;;;7321145;19;9235;-64
2023/10/05 04:18:02;;;;;;;;;;;15.30;99.90;;;;;;7317635;19;9209;-63
2023/10/05 04:20:33;;;;;;;;;;;15.40;99.90;;;;;;7319517;19;9136;-64
2023/10/05 04:23:02;;;;;;;;;;;15.40;99.90;;;;;;7321511;19;9549;-64
2023/10/05 04:25:32;;;;;;;;;;;15.30;99.90;;;;;;7319186;19;9538;-64
2023/10/05 04:28:04;;;;;;;;;;;15.30;99.90;;;;;;7321096;19;9747;-64
2023/10/05 04:30:33;;;;;;;;;;;15.30;99.90;;;;;;7311125;19;9280;-64
2023/10/05 04:33:05;;;;;;;;;;;15.30;99.90;;;;;;7318888;19;9283;-64
2023/10/05 04:35:42;;;;;;;;;;;15.20;99.90;;;;;;7318443;19;9247;-64
2023/10/05 04:38:12;;;;;;;;;;;15.10;99.90;;;;;;7317681;19;9230;-63
2023/10/05 04:40:41;;;;;;;;;;;15.10;99.90;;;;;;7317262;19;9604;-63
2023/10/05 04:43:16;;;;;;;;;;;15.00;99.90;;;;;;7318861;19;9465;-63
2023/10/05 04:45:46;;;;;;;;;;;15.00;99.90;;;;;;7318862;19;9186;-63
2023/10/05 04:48:15;;;;;;;;;;;15.00;99.90;;;;;;7316245;19;9425;-63
2023/10/05 04:50:47;;;;;;;;;;;15.00;99.90;;;;;;7319241;19;9222;-64
2023/10/05 04:53:17;;;;;;;;;;;15.00;99.90;;;;;;7310638;19;9118;-63
2023/10/05 04:55:46;;;;;;;;;;;14.90;99.90;;;;;;7310953;19;9509;-63
2023/10/05 04:58:22;;;;;;;;;;;14.90;99.90;;;;;;7321139;19;10831;-63
2023/10/05 05:00:54;;;;;;;;;;;15.00;99.90;;;;;;7311527;19;9525;-63
2023/10/05 05:03:48;;;;;;;;;;;15.00;99.90;;;;;;7314043;19;9630;-63
2023/10/05 05:06:17;;;;;;;;;;;15.10;99.90;;;;;;7320109;19;9267;-63
2023/10/05 05:08:46;;;;;;;;;;;15.20;99.90;;;;;;7317691;19;9216;-63
2023/10/05 05:11:22;;;;;;;;;;;15.20;99.90;;;;;;7320174;19;9230;-63
2023/10/05 05:13:54;;;;;;;;;;;15.00;99.90;;;;;;7321567;19;9456;-63
2023/10/05 05:16:23;;;;;;;;;;;15.00;99.90;;;;;;7317654;19;10959;-63
2023/10/05 05:18:55;;;;;;;;;;;15.10;99.90;;;;;;7313204;19;13023;-63
2023/10/05 05:21:24;;;;;;;;;;;15.20;99.90;;;;;;7316917;19;9556;-63
2023/10/05 05:23:53;;;;;;;;;;;15.10;99.90;;;;;;7319659;19;9273;-63
2023/10/05 05:26:22;;;;;;;;;;;15.10;99.90;;;;;;7317091;19;9261;-64
2023/10/05 05:28:54;;;;;;;;;;;15.10;99.90;;;;;;7320311;19;12261;-63
2023/10/05 05:31:23;;;;;;;;;;;15.10;99.90;;;;;;7317356;19;9484;-64
2023/10/05 05:33:53;;;;;;;;;;;15.20;99.90;;;;;;7317762;19;9491;-64
2023/10/05 05:36:21;;;;;;;;;;;15.30;99.90;;;;;;7317663;19;9126;-63
2023/10/05 05:38:51;;;;;;;;;;;15.30;99.90;;;;;;7309291;19;9322;-63
2023/10/05 05:41:27;;;;;;;;;;;15.20;99.90;;;;;;7298180;19;9502;-63
2023/10/05 05:43:59;;;;;;;;;;;15.20;99.90;;;;;;7299090;19;9307;-63
2023/10/05 05:46:28;;;;;;;;;;;15.10;99.90;;;;;;7302534;19;12286;-63
2023/10/05 05:48:58;;;;;;;;;;;15.00;99.90;;;;;;7299278;19;10495;-67
2023/10/05 05:51:27;;;;;;;;;;;15.00;99.90;;;;;;7312498;19;9173;-63
2023/10/05 05:53:56;;;;;;;;;;;15.00;99.90;;;;;;7315736;19;9231;-68
2023/10/05 05:56:28;;;;;;;;;;;15.00;99.90;;;;;;7315576;19;10344;-64
2023/10/05 05:59:00;;;;;;;;;;;15.00;99.90;;;;;;7322678;19;9240;-71
2023/10/05 06:01:30;;;;;;;;;;;15.00;99.90;;;;;;7320597;19;9416;-65
2023/10/05 06:03:59;;;;;;;;;;;15.10;99.90;;;;;;7316810;19;9272;-65
2023/10/05 06:06:28;;;;;;;;;;;15.20;99.90;;;;;;7306096;19;9249;-65
2023/10/05 06:08:57;;;;;;;;;;;15.30;99.90;;;;;;7306177;19;9188;-65
2023/10/05 06:11:26;;;;;;;;;;;15.30;99.90;;;;;;7304252;19;9475;-65
2023/10/05 06:13:55;;;;;;;;;;;15.40;99.90;;;;;;7311908;19;12220;-64
2023/10/05 06:16:28;;;;;;;;;;;15.60;99.90;;;;;;7311909;19;9456;-65
2023/10/05 06:18:57;;;;;;;;;;;15.80;99.90;;;;;;7307384;19;9301;-65
2023/10/05 06:21:26;;;;;;;;;;;15.90;99.90;;;;;;7313568;19;9244;-65
2023/10/05 06:23:56;;;;;;;;;;;16.00;99.90;;;;;;7301902;19;9217;-65
2023/10/05 06:26:26;;;;;;;;;;;16.00;99.90;;;;;;7315121;19;9279;-65
2023/10/05 06:28:55;;;;;;;;;;;16.10;99.90;;;;;;7320780;19;9493;-65
2023/10/05 06:31:27;;;;;;;;;;;16.20;99.90;;;;;;7317276;19;9504;-65
2023/10/05 06:33:57;;;;;;;;;;;16.30;99.90;;;;;;7319230;19;9427;-65
2023/10/05 06:36:26;;;;;;;;;;;16.40;99.90;;;;;;7312898;19;11495;-66
2023/10/05 06:38:56;;;;;;;;;;;16.30;99.90;;;;;;7311540;19;9361;-65
2023/10/05 06:41:25;;;;;;;;;;;16.30;99.90;;;;;;7314516;19;9392;-65
2023/10/05 06:43:55;;;;;;;;;;;16.40;99.90;;;;;;7317002;19;11077;-65
2023/10/05 06:46:29;;;;;;;;;;;16.50;99.90;;;;;;7318426;19;9489;-65
2023/10/05 06:48:58;;;;;;;;;;;16.60;99.90;;;;;;7321025;19;11572;-65
2023/10/05 06:51:29;;;;;;;;;;;16.60;99.90;;;;;;7319929;19;9465;-65
2023/10/05 06:53:59;;;;;;;;;;;16.70;99.90;;;;;;7316885;19;9451;-65
2023/10/05 06:56:29;;;;;;;;;;;16.70;99.90;;;;;;7311733;19;9991;-65
2023/10/05 06:58:58;;;;;;;;;;;16.70;99.90;;;;;;7318694;19;9323;-65
2023/10/05 07:01:34;;;;;;;;;;;16.70;99.90;;;;;;7317625;19;9484;-65
2023/10/05 07:04:07;;;;;;;;;;;16.80;99.90;;;;;;7317611;19;9485;-65
2023/10/05 07:06:37;;;;;;;;;;;16.70;99.90;;;;;;7319759;19;9382;-65
2023/10/05 07:09:11;;;;;;;;;;;16.70;99.90;;;;;;7323555;19;10963;-65
2023/10/05 07:11:40;;;;;;;;;;;16.80;99.90;;;;;;7313916;19;9273;-65
2023/10/05 07:14:09;;;;;;;;;;;16.90;99.90;;;;;;7321791;19;9226;-66
2023/10/05 07:16:41;;;;;;;;;;;16.90;99.90;;;;;;7322793;19;9273;-65
2023/10/05 07:19:10;;;;;;;;;;;17.10;99.90;;;;;;7322982;19;9443;-65
2023/10/05 07:21:38;;;;;;;;;;;17.10;99.90;;;;;;7319586;19;9317;-65
2023/10/05 07:24:08;;;;;;;;;;;17.10;99.90;;;;;;7319700;19;9214;-65
2023/10/05 07:26:37;;;;;;;;;;;17.00;99.90;;;;;;7321157;19;9513;-65
2023/10/05 07:29:06;;;;;;;;;;;17.10;99.90;;;;;;7321947;19;9782;-65
2023/10/05 07:31:35;;;;;;;;;;;17.20;99.90;;;;;;7316789;19;9801;-65
2023/10/05 07:34:07;;;;;;;;;;;17.30;99.90;;;;;;7323140;19;10306;-65
2023/10/05 07:36:36;;;;;;;;;;;17.30;99.90;;;;;;7322156;19;9581;-65
2023/10/05 07:39:11;;;;;;;;;;;17.30;99.90;;;;;;7320993;19;11461;-65
2023/10/05 07:41:40;;;;;;;;;;;17.30;99.90;;;;;;7321848;19;9226;-65
2023/10/05 07:44:09;;;;;;;;;;;17.40;99.90;;;;;;7323175;19;9507;-65
2023/10/05 07:46:38;;;;;;;;;;;17.40;99.90;;;;;;7308531;19;9323;-65
2023/10/05 07:49:10;;;;;;;;;;;17.50;99.90;;;;;;7321928;19;9293;-65
2023/10/05 07:51:39;;;;;;;;;;;17.60;99.90;;;;;;7317411;19;9208;-65
2023/10/05 07:54:09;;;;;;;;;;;17.60;99.90;;;;;;7313258;19;9364;-65
2023/10/05 07:56:38;;;;;;;;;;;17.50;99.90;;;;;;7308570;19;9316;-65
2023/10/05 07:59:07;;;;;;;;;;;17.60;99.90;;;;;;7318611;19;9167;-65
2023/10/05 08:01:36;;;;;;;;;;;17.60;99.90;;;;;;7318111;19;9236;-65
2023/10/05 08:04:05;;;;;;;;;;;17.40;99.90;;;;;;7318633;19;9116;-65
2023/10/05 08:06:37;;;;;;;;;;;17.40;99.90;;;;;;7320731;19;9221;-66
2023/10/05 08:09:07;;;;;;;;;;;17.30;99.90;;;;;;7321202;19;9184;-66
2023/10/05 08:11:36;;;;;;;;;;;17.40;99.90;;;;;;7321029;19;9176;-65
2023/10/05 08:14:05;;;;;;;;;;;17.20;99.90;;;;;;7319677;19;9303;-65
2023/10/05 08:16:34;;;;;;;;;;;17.40;99.90;;;;;;7312354;19;9485;-65
2023/10/05 08:19:05;;;;;;;;;;;17.50;99.90;;;;;;7317421;19;10623;-65
2023/10/05 08:21:37;;;;;;;;;;;17.70;99.90;;;;;;7314581;19;10229;-65
2023/10/05 08:24:06;;;;;;;;;;;17.90;99.90;;;;;;7318798;19;9649;-65
2023/10/05 08:26:39;;;;;;;;;;;18.00;99.90;;;;;;7317121;19;9318;-66
2023/10/05 08:29:09;;;;;;;;;;;17.90;99.90;;;;;;7319313;19;9414;-65
2023/10/05 08:31:38;;;;;;;;;;;18.00;99.90;;;;;;7317060;19;9447;-65
2023/10/05 08:34:09;;;;;;;;;;;17.90;99.90;;;;;;7319915;19;9210;-65
2023/10/05 08:36:41;;;;;;;;;;;17.90;99.90;;;;;;7320915;19;9221;-66
2023/10/05 08:39:10;;;;;;;;;;;17.90;99.90;;;;;;7318399;19;9351;-65
2023/10/05 08:41:42;;;;;;;;;;;17.80;99.90;;;;;;7308584;19;9247;-65
2023/10/05 08:44:26;;;;;;;;;;;17.80;99.90;;;;;;7313794;19;11546;-65
2023/10/05 08:46:56;;;;;;;;;;;17.70;99.90;;;;;;7317828;19;9317;-66
2023/10/05 08:49:26;;;;;;;;;;;17.40;99.90;;;;;;7315745;19;9222;-66
2023/10/05 08:51:59;;;;;;;;;;;17.30;99.90;;;;;;7315511;19;9233;-66
2023/10/05 08:54:33;;;;;;;;;;;17.30;99.90;;;;;;7317407;19;9202;-66
2023/10/05 08:57:09;;;;;;;;;;;17.30;99.90;;;;;;7312026;19;9285;-66
2023/10/05 08:59:39;;;;;;;;;;;17.20;99.90;;;;;;7308520;19;10865;-65
2023/10/05 09:02:09;;;;;;;;;;;17.00;99.90;;;;;;7314492;19;9464;-65
2023/10/05 09:04:49;;;;;;;;;;;17.00;99.90;;;;;;7320503;19;9132;-65
2023/10/05 09:07:35;;;;;;;;;;;17.00;99.90;;;;;;7320449;19;9624;-65
2023/10/05 09:10:06;;;;;;;;;;;16.80;99.90;;;;;;7318907;19;9352;-65
2023/10/05 09:12:38;;;;;;;;;;;16.50;99.90;;;;;;7319944;19;9547;-65
2023/10/05 09:15:08;;;;;;;;;;;16.20;99.90;;;;;;7309984;19;10560;-65
2023/10/05 09:17:37;;;;;;;;;;;16.10;99.90;;;;;;7316476;19;9182;-66
2023/10/05 09:20:23;;;;;;;;;;;16.20;99.90;;;;;;7320328;19;9310;-65
2023/10/05 09:22:56;;;;;;;;;;;16.50;99.90;;;;;;7319756;19;9229;-66
2023/10/05 09:25:28;;;;;;;;;;;16.60;99.90;;;;;;7320954;19;9226;-65
2023/10/05 09:28:07;;;;;;;;;;;16.50;99.90;;;;;;7319462;19;9542;-65
2023/10/05 09:30:37;;;;;;;;;;;16.60;99.90;;;;;;7325825;19;9209;-66
2023/10/05 09:33:15;;;;;;;;;;;16.70;99.90;;;;;;7321970;19;9191;-66
2023/10/05 09:35:46;;;;;;;;;;;17.00;99.90;;;;;;7318374;19;10644;-65
2023/10/05 09:38:22;;;;;;;;;;;17.00;99.90;;;;;;7320930;19;9186;-65
2023/10/05 09:40:53;;;;;;;;;;;17.30;99.90;;;;;;7327097;19;9121;-65
2023/10/05 09:43:24;;;;;;;;;;;17.40;99.90;;;;;;7322667;19;9622;-65
2023/10/05 09:45:56;;;;;;;;;;;17.30;99.90;;;;;;7324705;19;9297;-66
2023/10/05 09:48:27;;;;;;;;;;;17.40;99.90;;;;;;7318575;19;9664;-66
2023/10/05 09:50:59;;;;;;;;;;;17.60;99.90;;;;;;7306935;19;9710;-65
2023/10/05 09:53:33;;;;;;;;;;;17.80;99.90;;;;;;7320168;19;9179;-65
2023/10/05 09:56:04;;;;;;;;;;;17.90;99.90;;;;;;7321644;19;9324;-66
2023/10/05 09:58:34;;;;;;;;;;;18.20;99.90;;;;;;7303078;19;9258;-65
2023/10/05 10:01:12;;;;;;;;;;;18.20;99.90;;;;;;7312106;19;9787;-65
2023/10/05 10:03:45;;;;;;;;;;;18.20;99.90;;;;;;7316278;19;9127;-65
2023/10/05 10:06:19;;;;;;;;;;;18.30;99.90;;;;;;7323730;19;9275;-65
2023/10/05 10:09:00;;;;;;;;;;;18.50;99.90;;;;;;7322197;19;9316;-65
2023/10/05 10:11:31;;;;;;;;;;;18.50;99.90;;;;;;7324889;19;9304;-65
2023/10/05 10:14:08;;;;;;;;;;;18.50;99.90;;;;;;7324856;19;9263;-65
2023/10/05 10:16:41;;;;;;;;;;;18.50;99.90;;;;;;7316003;19;9475;-65
2023/10/05 10:19:19;;;;;;;;;;;18.50;99.90;;;;;;7315298;19;9282;-65
2023/10/05 10:21:49;;;;;;;;;;;18.30;99.90;;;;;;7310006;19;9170;-65
2023/10/05 10:24:21;;;;;;;;;;;18.30;99.90;;;;;;7325580;19;9452;-65
2023/10/05 10:27:00;;;;;;;;;;;18.30;99.90;;;;;;7321854;19;9405;-65
2023/10/05 10:29:43;;;;;;;;;;;18.30;99.90;;;;;;7317460;19;9369;-65
2023/10/05 10:32:22;;;;;;;;;;;18.30;99.90;;;;;;7320159;19;9290;-65
2023/10/05 10:34:55;;;;;;;;;;;18.40;99.90;;;;;;7323838;19;9469;-65
2023/10/05 10:37:39;;;;;;;;;;;18.50;99.90;;;;;;7314253;19;9463;-65
2023/10/05 10:40:25;;;;;;;;;;;18.60;99.90;;;;;;7320797;19;9325;-65
2023/10/05 10:43:06;;;;;;;;;;;18.80;99.90;;;;;;7320942;19;9266;-65
2023/10/05 10:45:40;;;;;;;;;;;18.80;99.90;;;;;;7314023;19;9615;-65
2023/10/05 10:48:14;;;;;;;;;;;18.80;99.90;;;;;;7318276;19;9516;-65
2023/10/05 10:50:45;;;;;;;;;;;18.90;99.90;;;;;;7321958;19;9170;-65
2023/10/05 10:53:16;;;;;;;;;;;19.00;99.90;;;;;;7319039;19;9588;-65
2023/10/05 10:55:51;;;;;;;;;;;19.20;99.90;;;;;;7317851;19;9679;-65
2023/10/05 10:58:24;;;;;;;;;;;19.40;99.90;;;;;;7319259;19;9564;-65
2023/10/05 11:01:02;;;;;;;;;;;19.50;99.90;;;;;;7319642;19;9187;-66
2023/10/05 11:03:30;;;;;;;;;;;19.40;99.90;;;;;;7311201;19;9132;-65
2023/10/05 11:06:01;;;;;;;;;;;19.30;99.90;;;;;;7316456;19;9587;-65
2023/10/05 11:08:30;;;;;;;;;;;19.30;99.90;;;;;;7323499;19;9609;-65
2023/10/05 11:11:09;;;;;;;;;;;19.40;99.90;;;;;;7315185;19;9460;-66
2023/10/05 11:13:49;;;;;;;;;;;19.50;99.90;;;;;;7312239;19;9358;-65
2023/10/05 11:16:19;;;;;;;;;;;19.80;99.90;;;;;;7316156;19;9521;-65
2023/10/05 11:18:57;;;;;;;;;;;19.80;99.90;;;;;;7311008;19;9450;-65
2023/10/05 11:21:33;;;;;;;;;;;19.60;99.90;;;;;;7311256;19;9543;-65
2023/10/05 11:24:06;;;;;;;;;;;19.50;99.90;;;;;;7309131;19;9249;-65
2023/10/05 11:27:05;;;;;;;;;;;19.20;99.90;;;;;;7308546;19;10307;-65
2023/10/05 11:29:42;;;;;;;;;;;18.70;99.90;;;;;;7313338;19;9332;-66
2023/10/05 11:32:12;;;;;;;;;;;18.10;99.90;;;;;;7312153;19;9292;-66
2023/10/05 11:34:42;;;;;;;;;;;17.30;99.90;;;;;;7314550;19;9020;-65
2023/10/05 11:37:15;;;;;;;;;;;16.20;99.90;;;;;;7311133;19;9454;-66
2023/10/05 11:39:49;;;;;;;;;;;15.70;99.90;;;;;;7314653;19;9593;-66
2023/10/05 11:42:24;;;;;;;;;;;15.40;99.90;;;;;;7308082;19;9206;-66
2023/10/05 11:44:55;;;;;;;;;;;15.30;99.90;;;;;;7315331;19;9221;-66
2023/10/05 11:47:32;;;;;;;;;;;15.40;99.90;;;;;;7320460;19;10349;-66
2023/10/05 11:50:07;;;;;;;;;;;15.40;99.90;;;;;;7319823;19;9376;-66
2023/10/05 11:52:38;;;;;;;;;;;15.40;99.90;;;;;;7309756;19;11263;-66
2023/10/05 11:55:11;;;;;;;;;;;15.20;99.90;;;;;;7300516;19;9384;-66
2023/10/05 11:57:44;;;;;;;;;;;15.30;99.90;;;;;;7314400;19;9366;-66
2023/10/05 12:00:16;;;;;;;;;;;15.40;99.90;;;;;;7318521;19;9294;-66
2023/10/05 12:02:46;;;;;;;;;;;15.30;99.90;;;;;;7303871;19;9469;-66
2023/10/05 12:05:15;;;;;;;;;;;15.40;99.90;;;;;;7310833;19;10415;-66
2023/10/05 12:07:45;;;;;;;;;;;15.50;99.90;;;;;;7312432;19;9311;-66
2023/10/05 12:10:14;;;;;;;;;;;15.70;99.90;;;;;;7316533;19;9506;-66
2023/10/05 12:12:50;;;;;;;;;;;15.90;99.90;;;;;;7319061;19;9298;-66
2023/10/05 12:15:22;;;;;;;;;;;16.00;99.90;;;;;;7322074;19;10261;-66
2023/10/05 12:17:51;;;;;;;;;;;16.10;99.90;;;;;;7322249;19;9291;-66
2023/10/05 12:20:21;;;;;;;;;;;16.40;99.90;;;;;;7313492;19;9399;-66
2023/10/05 12:22:51;;;;;;;;;;;16.40;99.90;;;;;;7313470;19;9492;-66
2023/10/05 12:25:27;;;;;;;;;;;16.50;99.90;;;;;;7319057;19;9487;-66
2023/10/05 12:27:59;;;;;;;;;;;16.50;99.90;;;;;;7318367;19;9175;-66
2023/10/05 12:30:31;;;;;;;;;;;16.40;99.90;;;;;;7322455;19;9596;-66
2023/10/05 12:33:00;;;;;;;;;;;16.60;99.90;;;;;;7313141;19;9380;-66
2023/10/05 12:35:29;;;;;;;;;;;16.50;99.90;;;;;;7318325;19;9133;-66
2023/10/05 12:37:58;;;;;;;;;;;16.50;99.90;;;;;;7315535;19;9485;-66
2023/10/05 12:40:38;;;;;;;;;;;16.50;99.90;;;;;;7318402;19;9560;-66
2023/10/05 12:43:15;;;;;;;;;;;16.50;99.90;;;;;;7318865;19;9311;-66
2023/10/05 12:45:44;;;;;;;;;;;16.60;99.90;;;;;;7313576;19;9665;-66
2023/10/05 12:48:15;;;;;;;;;;;16.60;99.90;;;;;;7316055;19;9557;-65
2023/10/05 12:50:44;;;;;;;;;;;16.70;99.90;;;;;;7309799;19;9439;-66
2023/10/05 12:53:13;;;;;;;;;;;16.70;99.90;;;;;;7310593;19;9312;-66
2023/10/05 12:55:42;;;;;;;;;;;16.50;99.90;;;;;;7306951;19;9276;-66
2023/10/05 12:58:13;;;;;;;;;;;16.50;99.90;;;;;;7316512;19;9429;-66
2023/10/05 13:00:44;;;;;;;;;;;16.60;99.90;;;;;;7310334;19;9305;-66
2023/10/05 13:03:13;;;;;;;;;;;16.60;99.90;;;;;;7313344;19;9278;-66
2023/10/05 13:05:43;;;;;;;;;;;16.50;99.90;;;;;;7320100;19;9305;-66
2023/10/05 13:08:16;;;;;;;;;;;16.50;99.90;;;;;;7318213;19;9237;-66
2023/10/05 13:10:45;;;;;;;;;;;16.60;99.90;;;;;;7319973;19;9677;-66
2023/10/05 13:13:21;;;;;;;;;;;16.60;99.90;;;;;;7311797;19;9481;-66
2023/10/05 13:15:50;;;;;;;;;;;16.60;99.90;;;;;;7315976;19;9207;-66
2023/10/05 13:18:21;;;;;;;;;;;16.70;99.90;;;;;;7317865;19;9402;-66
2023/10/05 13:20:51;;;;;;;;;;;16.90;99.90;;;;;;7321259;19;9126;-66
2023/10/05 13:23:21;;;;;;;;;;;17.10;99.90;;;;;;7308723;19;9311;-66
2023/10/05 13:25:51;;;;;;;;;;;17.10;99.90;;;;;;7320303;19;9166;-66
2023/10/05 13:28:24;;;;;;;;;;;17.10;99.90;;;;;;7318296;19;9220;-66
2023/10/05 13:30:54;;;;;;;;;;;17.10;99.90;;;;;;7306341;19;9382;-66
2023/10/05 13:33:28;;;;;;;;;;;17.00;99.90;;;;;;7315555;19;9296;-66
2023/10/05 13:35:58;;;;;;;;;;;17.10;99.90;;;;;;7317255;19;9335;-66
2023/10/05 13:38:28;;;;;;;;;;;17.00;99.90;;;;;;7318565;19;9257;-66
2023/10/05 13:41:13;;;;;;;;;;;17.00;99.90;;;;;;7315846;19;9320;-66
2023/10/05 13:43:47;;;;;;;;;;;17.00;99.90;;;;;;7312615;19;9026;-66
2023/10/05 13:46:19;;;;;;;;;;;17.00;99.90;;;;;;7301827;19;9513;-66
2023/10/05 13:48:53;;;;;;;;;;;16.80;99.90;;;;;;7308325;19;9497;-66
2023/10/05 13:51:23;;;;;;;;;;;16.80;99.90;;;;;;7309336;19;9242;-65
2023/10/05 13:53:54;;;;;;;;;;;16.90;99.90;;;;;;7313741;19;9469;-65
2023/10/05 13:56:27;;;;;;;;;;;16.70;99.90;;;;;;7317571;19;9202;-66
2023/10/05 13:59:01;;;;;;;;;;;16.70;99.90;;;;;;7316818;19;9569;-66
2023/10/05 14:01:37;;;;;;;;;;;16.70;99.90;;;;;;7305550;19;9298;-66
2023/10/05 14:04:08;;;;;;;;;;;16.70;99.90;;;;;;7308824;19;10177;-66
2023/10/05 14:06:39;;;;;;;;;;;16.80;99.90;;;;;;7310614;19;9493;-66
2023/10/05 14:09:10;;;;;;;;;;;16.90;99.90;;;;;;7314671;19;9196;-66
2023/10/05 14:11:43;;;;;;;;;;;16.80;99.90;;;;;;7315027;19;9564;-66
2023/10/05 14:14:15;;;;;;;;;;;16.70;99.90;;;;;;7320631;19;9769;-66
2023/10/05 14:16:49;;;;;;;;;;;16.70;99.90;;;;;;7324342;19;9731;-66
2023/10/05 14:19:18;;;;;;;;;;;16.70;99.90;;;;;;7322703;19;10552;-65
2023/10/05 14:21:47;;;;;;;;;;;16.90;99.90;;;;;;7314591;19;9190;-65
2023/10/05 14:24:17;;;;;;;;;;;17.10;99.90;;;;;;7320529;19;9272;-66
2023/10/05 14:26:48;;;;;;;;;;;17.20;99.90;;;;;;7321660;19;9143;-66
2023/10/05 14:29:23;;;;;;;;;;;17.40;99.90;;;;;;7322529;19;9498;-65
2023/10/05 14:31:55;;;;;;;;;;;17.40;99.90;;;;;;7313709;19;9239;-66
2023/10/05 14:34:26;;;;;;;;;;;17.40;99.90;;;;;;7315923;19;9505;-66
2023/10/05 14:36:58;;;;;;;;;;;17.40;99.90;;;;;;7319300;19;9266;-65
2023/10/05 14:39:32;;;;;;;;;;;17.40;99.90;;;;;;7319598;19;9269;-67
2023/10/05 14:42:04;;;;;;;;;;;17.30;99.90;;;;;;7321646;19;9119;-66
2023/10/05 14:44:38;;;;;;;;;;;17.10;99.90;;;;;;7320610;19;9458;-65
2023/10/05 14:47:11;;;;;;;;;;;17.00;99.90;;;;;;7324957;19;9213;-66
2023/10/05 14:49:41;;;;;;;;;;;17.00;99.90;;;;;;7312618;19;9322;-66
2023/10/05 14:52:11;;;;;;;;;;;17.00;99.90;;;;;;7311408;19;9254;-66
2023/10/05 14:54:40;;;;;;;;;;;17.00;99.90;;;;;;7308276;19;9404;-66
2023/10/05 14:57:10;;;;;;;;;;;16.90;99.90;;;;;;7317119;19;9289;-65
2023/10/05 14:59:42;;;;;;;;;;;17.00;99.90;;;;;;7321781;19;9235;-65